Princeton, Massachusetts
Current Conditions -  °F | °C
As of 11:52 PM on Friday 19 Dec 2014 (Local Time) from KFIT Reporting Station
Clear Clear  
Wind Chill: 25°   Ceiling: Unl
Heat Index: 25°   Visibility: 10mi
Dew Point: 19°   Wind: 3mph
Humidity: 78%   Direction: 350°N
Pressure: 30.15"   Gusts: NA
Location:  42.45°N, 71.88°W
Report Text: KFIT 200452Z AUTO 35003KT 10SM CLR M04/M07 A3015 RMK AO2 SLP215 T10391072 400221044
Loading
Personal Weather Stations






























Interactive Weather Map New forecast layout! Learn more

10-Day Weather Forecast

Advertisements
Track Severe Weather on mobile